KCRX/CRX METAR and TAF weather

Enter ICAO airport designator
Station Type Date Time Source
KCRX METAR 2020/03/28 20:35 UTC NOAA

KCRX 282035Z AUTO 20013G19KT 10SM FEW049 SCT055 29/18 A2980 RMK AO2


Station Type Date Time Source
KCRX Decoded METAR 2020/03/28 20:35 UTC NOAA

Station name not available
Mar 28, 2020 - 04:35 PM EDT / 2020.03.28 2035 UTC
Wind: from the SSW (200 degrees) at 15 MPH (13 KT) gusting to 22 MPH (19 KT):0
Visibility: 10 mile(s):0
Sky conditions: partly cloudy
Temperature: 84 F (29 C)
Dew Point: 64 F (18 C)
Relative Humidity: 51%
Pressure (altimeter): 29.8 in. Hg (1009 hPa)
ob: KCRX 282035Z AUTO 20013G19KT 10SM FEW049 SCT055 29/18 A2980 RMK AO2
cycle: 20

Station Type Date Time Source
KCRX TAF UTC NOAA

Error!

Example: see airport list